Time;durP1;ratioP1;P1;durP2;ratioP2;P2;SDS_P1;SDS_P2;PMS_P1;PMS_P2;Temp;Humidity;BMP_temperature;BMP_pressure;BME280_temperature;BME280_humidity;BME280_pressure;Samples;Min_cycle;Max_cycle;Signal;HPM_P1;HPM_P2
2023/08/16 00:01:24;;;;;;;1999.90;999.90;;;17.70;99.90;;;;;;5095345;28;20494;-72
2023/08/16 00:03:50;;;;;;;1999.90;999.90;;;17.70;99.90;;;;;;5094834;28;20044;-72
2023/08/16 00:06:16;;;;;;;1999.90;999.90;;;17.60;99.90;;;;;;5081494;28;20037;-72
2023/08/16 00:08:41;;;;;;;1999.90;999.90;;;17.60;99.90;;;;;;5081032;28;20096;-72
2023/08/16 00:11:09;;;;;;;1999.90;999.90;;;17.60;99.90;;;;;;5078101;28;20025;-71
2023/08/16 00:13:35;;;;;;;1999.90;999.90;;;17.60;99.90;;;;;;5079155;28;20031;-72
2023/08/16 00:16:01;;;;;;;1999.90;999.90;;;17.60;99.90;;;;;;5073375;28;20115;-72
2023/08/16 00:18:30;;;;;;;1999.90;999.90;;;17.60;99.90;;;;;;5094012;28;20483;-72
2023/08/16 00:20:58;;;;;;;1999.90;999.90;;;17.60;99.90;;;;;;5090150;28;20082;-72
2023/08/16 00:23:23;;;;;;;1999.90;999.90;;;17.60;99.90;;;;;;5092972;28;20089;-72
2023/08/16 00:25:49;;;;;;;1999.90;999.90;;;17.60;99.90;;;;;;5094737;28;20475;-72
2023/08/16 00:28:15;;;;;;;1999.90;999.90;;;17.60;99.90;;;;;;5094611;28;20020;-72
2023/08/16 00:30:40;;;;;;;1999.90;999.90;;;17.60;99.90;;;;;;5094683;28;20020;-71
2023/08/16 00:33:06;;;;;;;1999.90;999.90;;;17.60;99.90;;;;;;5094729;28;20025;-72
2023/08/16 00:35:32;;;;;;;1999.90;999.90;;;17.60;99.90;;;;;;5094555;28;20039;-72
2023/08/16 00:37:58;;;;;;;1999.90;999.90;;;17.60;99.90;;;;;;5093900;28;20056;-72
2023/08/16 00:40:24;;;;;;;1999.90;999.90;;;17.50;99.90;;;;;;5094730;28;20513;-72
2023/08/16 00:42:49;;;;;;;1999.90;999.90;;;17.50;99.90;;;;;;5093257;28;20103;-72
2023/08/16 00:45:15;;;;;;;1999.90;999.90;;;17.50;99.90;;;;;;5092969;28;20020;-72
2023/08/16 00:47:42;;;;;;;1999.90;999.90;;;17.50;99.90;;;;;;5094319;28;20024;-71
2023/08/16 00:50:08;;;;;;;1999.90;999.90;;;17.50;99.90;;;;;;5092848;28;20516;-72
2023/08/16 00:52:34;;;;;;;1999.90;999.90;;;17.50;99.90;;;;;;5081522;28;20487;-71
2023/08/16 00:55:02;;;;;;;1999.90;999.90;;;17.50;99.90;;;;;;5074046;28;20056;-72
2023/08/16 00:57:28;;;;;;;1999.90;999.90;;;17.50;99.90;;;;;;5072616;28;20029;-72
2023/08/16 00:59:54;;;;;;;1999.90;999.90;;;17.50;99.90;;;;;;5073814;28;20101;-71
2023/08/16 01:02:20;;;;;;;1999.90;999.90;;;17.50;99.90;;;;;;5073028;28;20091;-71
2023/08/16 01:04:47;;;;;;;1999.90;999.90;;;17.50;99.90;;;;;;5073953;28;20028;-72
2023/08/16 01:07:12;;;;;;;1999.90;999.90;;;17.50;99.90;;;;;;5074597;28;20490;-72
2023/08/16 01:09:38;;;;;;;1999.90;999.90;;;17.40;99.90;;;;;;5082249;28;20016;-72
2023/08/16 01:12:09;;;;;;;1999.90;999.90;;;17.50;99.90;;;;;;5073232;28;20479;-72
2023/08/16 01:14:38;;;;;;;1999.90;999.90;;;17.40;99.90;;;;;;5074427;28;20065;-71
2023/08/16 01:17:05;;;;;;;1999.90;999.90;;;17.40;99.90;;;;;;5084131;28;20031;-71
2023/08/16 01:19:32;;;;;;;1999.90;999.90;;;17.40;99.90;;;;;;5092562;28;20502;-71
2023/08/16 01:22:26;;;;;;;1999.90;999.90;;;17.40;99.90;;;;;;5081460;28;20034;-72
2023/08/16 01:25:08;;;;;;;1999.90;999.90;;;17.40;99.90;;;;;;5093539;28;20031;-71
2023/08/16 01:27:34;;;;;;;1999.90;999.90;;;17.40;99.90;;;;;;5093720;28;20047;-72
2023/08/16 01:30:03;;;;;;;1999.90;999.90;;;17.40;99.90;;;;;;5090332;28;20024;-72
2023/08/16 01:32:28;;;;;;;1999.90;999.90;;;17.40;99.90;;;;;;5093709;28;20024;-72
2023/08/16 01:34:54;;;;;;;1999.90;999.90;;;17.40;99.90;;;;;;5093354;28;20024;-72
2023/08/16 01:37:20;;;;;;;1999.90;999.90;;;17.40;99.90;;;;;;5093106;28;20032;-72
2023/08/16 01:39:50;;;;;;;1999.90;999.90;;;17.40;99.90;;;;;;5093465;28;20024;-72
2023/08/16 01:42:17;;;;;;;1999.90;999.90;;;17.40;99.90;;;;;;5093354;28;20038;-72
2023/08/16 01:44:46;;;;;;;1999.90;999.90;;;17.40;99.90;;;;;;5092043;28;20028;-71
2023/08/16 01:47:13;;;;;;;1999.90;999.90;;;17.40;99.90;;;;;;5093417;28;20020;-72
2023/08/16 01:49:41;;;;;;;1999.90;999.90;;;17.40;99.90;;;;;;5093094;28;20062;-72
2023/08/16 01:52:07;;;;;;;1999.90;999.90;;;17.40;99.90;;;;;;5083579;28;20029;-72
2023/08/16 01:54:33;;;;;;;1999.90;999.90;;;17.40;99.90;;;;;;5072999;28;20503;-71
2023/08/16 01:56:58;;;;;;;1999.90;999.90;;;17.40;99.90;;;;;;5071574;28;20031;-72
2023/08/16 01:59:24;;;;;;;1999.90;999.90;;;17.40;99.90;;;;;;5073145;28;20510;-72
2023/08/16 02:01:50;;;;;;;1999.90;999.90;;;17.30;99.90;;;;;;5071133;28;20033;-72
2023/08/16 02:04:15;;;;;;;1999.90;999.90;;;17.30;99.90;;;;;;5072933;28;20035;-72
2023/08/16 02:06:41;;;;;;;1999.90;999.90;;;17.30;99.90;;;;;;5072172;28;20020;-72
2023/08/16 02:09:06;;;;;;;1999.90;999.90;;;17.30;99.90;;;;;;5080536;28;20028;-71
2023/08/16 02:11:32;;;;;;;1999.90;999.90;;;17.30;99.90;;;;;;5073764;28;20522;-72
2023/08/16 02:13:58;;;;;;;1999.90;999.90;;;17.30;99.90;;;;;;5075905;28;20077;-72
2023/08/16 02:16:24;;;;;;;1999.90;999.90;;;17.30;99.90;;;;;;5080210;28;20033;-72
2023/08/16 02:18:51;;;;;;;1999.90;999.90;;;17.30;99.90;;;;;;5074640;28;20028;-71
2023/08/16 02:21:17;;;;;;;1999.90;999.90;;;17.30;99.90;;;;;;5092745;28;20039;-72
2023/08/16 02:23:43;;;;;;;1999.90;999.90;;;17.30;99.90;;;;;;5092896;28;20398;-71
2023/08/16 02:26:09;;;;;;;1999.90;999.90;;;17.30;99.90;;;;;;5092799;28;20020;-72
2023/08/16 02:28:34;;;;;;;1999.90;999.90;;;17.30;99.90;;;;;;5092920;28;20032;-72
2023/08/16 02:31:05;;;;;;;1999.90;999.90;;;17.30;99.90;;;;;;5092907;28;20546;-72
2023/08/16 02:33:31;;;;;;;1999.90;999.90;;;17.30;99.90;;;;;;5091460;28;20376;-72
2023/08/16 02:35:57;;;;;;;1999.90;999.90;;;17.40;99.90;;;;;;5092696;28;20055;-71
2023/08/16 02:38:23;;;;;;;1999.90;999.90;;;17.40;99.90;;;;;;5092630;28;20071;-72
2023/08/16 02:40:48;;;;;;;1999.90;999.90;;;17.40;99.90;;;;;;5093010;28;20490;-72
2023/08/16 02:43:14;;;;;;;1999.90;999.90;;;17.40;99.90;;;;;;5081669;28;20024;-72
2023/08/16 02:45:40;;;;;;;1999.90;999.90;;;17.40;99.90;;;;;;5072582;28;20021;-72
2023/08/16 02:48:06;;;;;;;1999.90;999.90;;;17.40;99.90;;;;;;5072405;28;20167;-72
2023/08/16 02:50:31;;;;;;;1999.90;999.90;;;17.40;99.90;;;;;;5071936;28;20016;-71
2023/08/16 02:52:57;;;;;;;1999.90;999.90;;;17.40;99.90;;;;;;5077768;28;20026;-72
2023/08/16 02:55:23;;;;;;;1999.90;999.90;;;17.40;99.90;;;;;;5091236;28;20032;-72
2023/08/16 02:57:48;;;;;;;1999.90;999.90;;;17.40;99.90;;;;;;5092702;28;20024;-71
2023/08/16 03:00:15;;;;;;;1999.90;999.90;;;17.40;99.90;;;;;;5092739;28;20103;-71
2023/08/16 03:02:40;;;;;;;1999.90;999.90;;;17.30;99.90;;;;;;5092427;28;20044;-72
2023/08/16 03:05:06;;;;;;;1999.90;999.90;;;17.30;99.90;;;;;;5092294;28;20044;-72
2023/08/16 03:07:32;;;;;;;1999.90;999.90;;;17.30;99.90;;;;;;5087175;28;20055;-72
2023/08/16 03:09:58;;;;;;;1999.90;999.90;;;17.30;99.90;;;;;;5079434;28;20032;-71
2023/08/16 03:12:24;;;;;;;1999.90;999.90;;;17.20;99.90;;;;;;5072466;28;20021;-71
2023/08/16 03:14:50;;;;;;;1999.90;999.90;;;17.20;99.90;;;;;;5072585;28;20035;-71
2023/08/16 03:17:15;;;;;;;1999.90;999.90;;;17.20;99.90;;;;;;5082266;28;20024;-71
2023/08/16 03:19:41;;;;;;;1999.90;999.90;;;17.20;99.90;;;;;;5092265;28;20032;-72
2023/08/16 03:22:07;;;;;;;1999.90;999.90;;;17.20;99.90;;;;;;5089932;28;20051;-71
2023/08/16 03:24:32;;;;;;;1999.90;999.90;;;17.20;99.90;;;;;;5095412;28;20418;-71
2023/08/16 03:26:59;;;;;;;1999.90;999.90;;;17.20;99.90;;;;;;5095931;28;20020;-71
2023/08/16 03:29:24;;;;;;;1999.90;999.90;;;17.20;99.90;;;;;;5094596;28;20032;-71
2023/08/16 03:31:50;;;;;;;1999.90;999.90;;;17.20;99.90;;;;;;5095957;28;20024;-72
2023/08/16 03:34:16;;;;;;;1999.90;999.90;;;17.10;99.90;;;;;;5095696;28;20028;-72
2023/08/16 03:36:42;;;;;;;1999.90;999.90;;;17.20;99.90;;;;;;5095820;28;20027;-72
2023/08/16 03:39:07;;;;;;;1999.90;999.90;;;17.20;99.90;;;;;;5095649;28;20030;-72
2023/08/16 03:41:33;;;;;;;1999.90;999.90;;;17.20;99.90;;;;;;5095662;28;20028;-72
2023/08/16 03:44:00;;;;;;;1999.90;999.90;;;17.20;99.90;;;;;;5095474;28;20032;-72
2023/08/16 03:46:25;;;;;;;1999.90;999.90;;;17.20;99.90;;;;;;5094220;28;20028;-72
2023/08/16 03:48:51;;;;;;;1999.90;999.90;;;17.20;99.90;;;;;;5095419;28;20050;-71
2023/08/16 03:51:17;;;;;;;1999.90;999.90;;;17.10;99.90;;;;;;5085312;28;20070;-71
2023/08/16 03:53:42;;;;;;;1999.90;999.90;;;17.20;99.90;;;;;;5075142;28;20029;-71
2023/08/16 03:56:08;;;;;;;1999.90;999.90;;;17.10;99.90;;;;;;5075041;28;20083;-72
2023/08/16 03:58:34;;;;;;;1999.90;999.90;;;17.10;99.90;;;;;;5073761;28;20028;-72
2023/08/16 04:00:59;;;;;;;1999.90;999.90;;;17.10;99.90;;;;;;5075078;28;20024;-72
2023/08/16 04:03:25;;;;;;;1999.90;999.90;;;17.10;99.90;;;;;;5074535;28;20040;-71
2023/08/16 04:05:50;;;;;;;1999.90;999.90;;;17.10;99.90;;;;;;5074841;28;20476;-71
2023/08/16 04:08:16;;;;;;;1999.90;999.90;;;17.10;99.90;;;;;;5081328;28;20034;-72
2023/08/16 04:10:42;;;;;;;1999.90;999.90;;;17.00;99.90;;;;;;5077667;28;20483;-71
2023/08/16 04:13:07;;;;;;;1999.90;999.90;;;17.00;99.90;;;;;;5079351;28;20024;-72
2023/08/16 04:15:33;;;;;;;1999.90;999.90;;;17.00;99.90;;;;;;5077248;28;20028;-71
2023/08/16 04:17:58;;;;;;;1999.90;999.90;;;17.00;99.90;;;;;;5074582;28;20488;-71
2023/08/16 04:20:24;;;;;;;1999.90;999.90;;;17.00;99.90;;;;;;5074715;28;20032;-72
2023/08/16 04:22:50;;;;;;;1999.90;999.90;;;17.10;99.90;;;;;;5088052;28;20056;-72
2023/08/16 04:25:16;;;;;;;1999.90;999.90;;;17.10;99.90;;;;;;5074552;28;20051;-72
2023/08/16 04:27:43;;;;;;;1999.90;999.90;;;17.10;99.90;;;;;;5074628;28;20564;-71
2023/08/16 04:30:09;;;;;;;1999.90;999.90;;;17.20;99.90;;;;;;5079527;28;20036;-71
2023/08/16 04:32:35;;;;;;;1999.90;999.90;;;17.10;99.90;;;;;;5088737;28;20020;-71
2023/08/16 04:35:02;;;;;;;1999.90;999.90;;;17.10;99.90;;;;;;5091905;28;20095;-71
2023/08/16 04:37:28;;;;;;;1999.90;999.90;;;17.10;99.90;;;;;;5081900;28;20027;-71
2023/08/16 04:39:53;;;;;;;1999.90;999.90;;;17.10;99.90;;;;;;5074848;28;20475;-72
2023/08/16 04:42:19;;;;;;;1999.90;999.90;;;17.10;99.90;;;;;;5072933;28;20169;-72
2023/08/16 04:44:44;;;;;;;1999.90;999.90;;;17.20;99.90;;;;;;5073993;28;20108;-71
2023/08/16 04:47:10;;;;;;;1999.90;999.90;;;17.20;99.90;;;;;;5074149;28;20021;-72
2023/08/16 04:49:36;;;;;;;1999.90;999.90;;;17.20;99.90;;;;;;5074226;28;20487;-72
2023/08/16 04:52:02;;;;;;;1999.90;999.90;;;17.20;99.90;;;;;;5073635;28;20065;-72
2023/08/16 04:54:27;;;;;;;1999.90;999.90;;;17.20;99.90;;;;;;5072646;28;20062;-72
2023/08/16 04:56:53;;;;;;;1999.90;999.90;;;17.30;99.90;;;;;;5077560;28;20352;-72
2023/08/16 04:59:19;;;;;;;1999.90;999.90;;;17.30;99.90;;;;;;5093803;28;20036;-72
2023/08/16 05:01:44;;;;;;;1999.90;999.90;;;17.30;99.90;;;;;;5090554;28;20376;-72
2023/08/16 05:04:10;;;;;;;1999.90;999.90;;;17.40;99.90;;;;;;5073624;28;20545;-71
2023/08/16 05:06:37;;;;;;;1999.90;999.90;;;17.40;99.90;;;;;;5073618;28;20074;-72
2023/08/16 05:09:04;;;;;;;1999.90;999.90;;;17.40;99.90;;;;;;5077967;28;20086;-71
2023/08/16 05:11:30;;;;;;;1999.90;999.90;;;17.40;99.90;;;;;;5076183;28;20091;-72
2023/08/16 05:13:56;;;;;;;1999.90;999.90;;;17.40;99.90;;;;;;5076820;28;20036;-72
2023/08/16 05:16:21;;;;;;;1999.90;999.90;;;17.40;99.90;;;;;;5076371;28;20032;-72
2023/08/16 05:18:47;;;;;;;1999.90;999.90;;;17.40;99.90;;;;;;5076279;28;20410;-71
2023/08/16 05:21:12;;;;;;;1999.90;999.90;;;17.40;99.90;;;;;;5087448;28;20032;-71
2023/08/16 05:23:38;;;;;;;1999.90;999.90;;;17.40;99.90;;;;;;5092242;28;20115;-71
2023/08/16 05:26:04;;;;;;;1999.90;999.90;;;17.40;99.90;;;;;;5086420;28;20029;-71
2023/08/16 05:28:29;;;;;;;1999.90;999.90;;;17.40;99.90;;;;;;5073056;28;20078;-72
2023/08/16 05:30:55;;;;;;;1999.90;999.90;;;17.40;99.90;;;;;;5071918;28;20074;-71
2023/08/16 05:33:21;;;;;;;1999.90;999.90;;;17.40;99.90;;;;;;5073103;28;20464;-71
2023/08/16 05:35:46;;;;;;;1999.90;999.90;;;17.40;99.90;;;;;;5072670;28;20081;-71
2023/08/16 05:38:12;;;;;;;1999.90;999.90;;;17.40;99.90;;;;;;5073048;28;20028;-71
2023/08/16 05:40:38;;;;;;;1999.90;999.90;;;17.30;99.90;;;;;;5073247;28;20027;-71
2023/08/16 05:43:04;;;;;;;1999.90;999.90;;;17.20;99.90;;;;;;5068550;28;20498;-71
2023/08/16 05:45:31;;;;;;;1999.90;999.90;;;17.10;99.90;;;;;;5072951;28;20024;-72
2023/08/16 05:47:56;;;;;;;1999.90;999.90;;;17.10;99.90;;;;;;5076715;28;20036;-72
2023/08/16 05:50:22;;;;;;;1999.90;999.90;;;17.10;99.90;;;;;;5075819;28;20028;-72
2023/08/16 05:52:48;;;;;;;1999.90;999.90;;;17.10;99.90;;;;;;5073987;28;20032;-72
2023/08/16 05:55:14;;;;;;;1999.90;999.90;;;17.10;99.90;;;;;;5070956;28;20032;-72
2023/08/16 05:57:40;;;;;;;1999.90;999.90;;;17.10;99.90;;;;;;5072645;28;20028;-72
2023/08/16 06:00:06;;;;;;;1999.90;999.90;;;17.20;99.90;;;;;;5071224;28;20119;-72
2023/08/16 06:02:32;;;;;;;1999.90;999.90;;;17.20;99.90;;;;;;5071875;28;20075;-71
2023/08/16 06:04:59;;;;;;;1999.90;999.90;;;17.30;99.90;;;;;;5079391;28;20086;-71
2023/08/16 06:07:28;;;;;;;1999.90;999.90;;;17.40;99.90;;;;;;5074079;28;20024;-71
2023/08/16 06:09:54;;;;;;;1999.90;999.90;;;17.50;99.90;;;;;;5084932;28;20024;-72
2023/08/16 06:12:19;;;;;;;1999.90;999.90;;;17.60;99.90;;;;;;5072579;28;20028;-72
2023/08/16 06:14:45;;;;;;;1999.90;999.90;;;17.60;99.90;;;;;;5075241;28;20024;-71
2023/08/16 06:17:11;;;;;;;1999.90;999.90;;;17.70;99.90;;;;;;5080613;28;20165;-72
2023/08/16 06:19:36;;;;;;;1999.90;999.90;;;17.70;99.90;;;;;;5080374;28;20422;-72
2023/08/16 06:22:02;;;;;;;1999.90;999.90;;;17.70;99.90;;;;;;5086894;28;20134;-72
2023/08/16 06:24:34;;;;;;;1999.90;999.90;;;17.80;99.90;;;;;;5074149;28;20024;-72
2023/08/16 06:26:59;;;;;;;1999.90;999.90;;;17.80;99.90;;;;;;5072028;28;20034;-71
2023/08/16 06:29:25;;;;;;;1999.90;999.90;;;17.90;99.90;;;;;;5071836;28;20421;-72
2023/08/16 06:31:54;;;;;;;1999.90;999.90;;;17.90;99.90;;;;;;5072337;28;20037;-72
2023/08/16 06:34:20;;;;;;;1999.90;999.90;;;18.00;99.90;;;;;;5075092;28;20032;-72
2023/08/16 06:36:46;;;;;;;1999.90;999.90;;;18.00;99.90;;;;;;5066016;28;20032;-72
2023/08/16 06:39:12;;;;;;;1999.90;999.90;;;18.00;99.90;;;;;;5073185;28;20028;-72
2023/08/16 06:41:38;;;;;;;1999.90;999.90;;;18.10;99.90;;;;;;5063749;28;20024;-72
2023/08/16 06:44:04;;;;;;;1999.90;999.90;;;18.10;99.90;;;;;;5063080;28;20028;-72
2023/08/16 06:46:30;;;;;;;1999.90;999.90;;;18.20;99.90;;;;;;5070999;28;20395;-72
2023/08/16 06:48:56;;;;;;;1999.90;999.90;;;18.20;99.90;;;;;;5070368;28;20020;-72
2023/08/16 06:51:21;;;;;;;1999.90;999.90;;;18.30;99.90;;;;;;5071411;28;20048;-72
2023/08/16 06:53:49;;;;;;;1999.90;999.90;;;18.30;99.90;;;;;;5069613;28;20556;-72
2023/08/16 06:56:14;;;;;;;1999.90;999.90;;;18.40;99.90;;;;;;5070957;28;20105;-72
2023/08/16 06:58:41;;;;;;;1999.90;999.90;;;18.50;99.90;;;;;;5073634;28;20087;-72
2023/08/16 07:01:08;;;;;;;1999.90;999.90;;;18.50;99.90;;;;;;5074521;28;20036;-72
2023/08/16 07:03:34;;;;;;;1999.90;999.90;;;18.50;99.90;;;;;;5074512;28;20048;-72
2023/08/16 07:06:00;;;;;;;1999.90;999.90;;;18.60;99.90;;;;;;5068914;28;20129;-72
2023/08/16 07:08:25;;;;;;;1999.90;999.90;;;18.70;99.90;;;;;;5081077;28;20082;-72
2023/08/16 07:10:51;;;;;;;1999.90;999.90;;;18.70;99.90;;;;;;5071657;28;20036;-72
2023/08/16 07:13:17;;;;;;;1999.90;999.90;;;18.60;99.90;;;;;;5070870;28;20043;-73
2023/08/16 07:15:43;;;;;;;1999.90;999.90;;;18.70;99.90;;;;;;5069339;28;20024;-72
2023/08/16 07:18:08;;;;;;;1999.90;999.90;;;18.70;99.90;;;;;;5066251;28;20028;-72
2023/08/16 07:20:34;;;;;;;1999.90;999.90;;;18.70;99.90;;;;;;5072614;28;20102;-72
2023/08/16 07:23:00;;;;;;;1999.90;999.90;;;18.70;99.90;;;;;;5075664;28;20035;-72
2023/08/16 07:25:29;;;;;;;1999.90;999.90;;;18.70;99.90;;;;;;5077609;28;20032;-72
2023/08/16 07:27:54;;;;;;;1999.90;999.90;;;18.80;99.90;;;;;;5075304;28;20020;-72
2023/08/16 07:30:20;;;;;;;1999.90;999.90;;;18.90;99.90;;;;;;5076315;28;20035;-72
2023/08/16 07:32:46;;;;;;;1999.90;999.90;;;18.90;99.90;;;;;;5079215;28;20020;-72
2023/08/16 07:35:11;;;;;;;1999.90;999.90;;;19.00;99.90;;;;;;5079168;28;20407;-72
2023/08/16 07:37:37;;;;;;;1999.90;999.90;;;19.10;99.90;;;;;;5077197;28;20087;-73
2023/08/16 07:40:07;;;;;;;1999.90;999.90;;;19.10;99.90;;;;;;5070737;28;20084;-72
2023/08/16 07:42:32;;;;;;;1999.90;999.90;;;19.00;99.90;;;;;;5069830;28;20067;-72
2023/08/16 07:44:59;;;;;;;1999.90;999.90;;;19.00;99.90;;;;;;5081932;28;20068;-72
2023/08/16 07:47:25;;;;;;;1999.90;999.90;;;19.10;99.90;;;;;;5065171;28;20028;-72
2023/08/16 07:49:50;;;;;;;1999.90;999.90;;;19.20;99.90;;;;;;5073947;28;20074;-72
2023/08/16 07:52:16;;;;;;;1999.90;999.90;;;19.10;99.90;;;;;;5064936;28;20430;-73
2023/08/16 07:54:42;;;;;;;1999.90;999.90;;;19.10;99.90;;;;;;5068984;28;20487;-73
2023/08/16 07:57:08;;;;;;;1999.90;999.90;;;19.20;99.90;;;;;;5077653;28;20020;-72
2023/08/16 07:59:33;;;;;;;1999.90;999.90;;;19.20;99.90;;;;;;5065484;28;20242;-72
2023/08/16 08:01:59;;;;;;;1999.90;999.90;;;19.20;99.90;;;;;;5068700;28;20432;-72
2023/08/16 08:04:25;;;;;;;1999.90;999.90;;;19.30;99.90;;;;;;5077152;28;20410;-72
2023/08/16 08:06:51;;;;;;;1999.90;999.90;;;19.50;99.90;;;;;;5063918;28;20510;-72
2023/08/16 08:09:17;;;;;;;1999.90;999.90;;;20.20;99.90;;;;;;5070664;28;20360;-72
2023/08/16 08:11:42;;;;;;;1999.90;999.90;;;20.70;99.90;;;;;;5068426;28;20032;-72
2023/08/16 08:14:08;;;;;;;1999.90;999.90;;;21.50;99.90;;;;;;5072877;28;20519;-73
2023/08/16 08:16:34;;;;;;;1999.90;999.90;;;22.70;99.90;;;;;;5072373;28;20067;-73
2023/08/16 08:18:59;;;;;;;1999.90;999.90;;;25.60;99.90;;;;;;5071727;28;20912;-73
2023/08/16 08:21:26;;;;;;;1999.90;999.90;;;27.00;99.90;;;;;;5072204;28;20070;-73
2023/08/16 08:23:52;;;;;;;1999.90;999.90;;;26.30;99.90;;;;;;5072864;28;20083;-73
2023/08/16 08:26:18;;;;;;;1999.90;999.90;;;25.00;99.90;;;;;;5073281;28;20518;-72
2023/08/16 08:28:44;;;;;;;1999.90;999.90;;;24.30;99.90;;;;;;5072910;28;20056;-72
2023/08/16 08:31:10;;;;;;;1999.90;999.90;;;23.90;99.90;;;;;;5079797;28;20125;-72
2023/08/16 08:33:36;;;;;;;1999.90;999.90;;;24.00;99.90;;;;;;5082631;28;20170;-72
2023/08/16 08:36:03;;;;;;;1999.90;999.90;;;24.00;99.90;;;;;;5071397;28;20554;-72
2023/08/16 08:38:29;;;;;;;1999.90;999.90;;;25.10;99.90;;;;;;5071853;28;20026;-73
2023/08/16 08:41:01;;;;;;;1999.90;999.90;;;25.10;99.90;;;;;;5071237;28;20171;-73
2023/08/16 08:43:34;;;;;;;1999.90;999.90;;;24.40;99.90;;;;;;5069518;28;20029;-72
2023/08/16 08:46:00;;;;;;;1999.90;999.90;;;24.00;99.90;;;;;;5071267;28;20089;-72
2023/08/16 08:48:29;;;;;;;1999.90;999.90;;;23.50;99.90;;;;;;5072627;28;20469;-72
2023/08/16 08:50:55;;;;;;;1999.90;999.90;;;23.40;99.90;;;;;;5072459;28;20055;-73
2023/08/16 08:53:25;;;;;;;1999.90;999.90;;;23.20;99.90;;;;;;5070540;28;20024;-72
2023/08/16 08:55:55;;;;;;;1999.90;999.90;;;22.80;99.90;;;;;;5072536;28;20033;-72
2023/08/16 08:58:22;;;;;;;1999.90;999.90;;;23.20;99.90;;;;;;5072651;28;20426;-73
2023/08/16 09:00:52;;;;;;;1999.90;999.90;;;23.90;99.90;;;;;;5070815;28;20036;-73
2023/08/16 09:03:21;;;;;;;1999.90;999.90;;;23.80;99.90;;;;;;5072059;28;20499;-72
2023/08/16 09:05:53;;;;;;;1999.90;999.90;;;23.30;99.90;;;;;;5070839;28;20041;-73
2023/08/16 09:08:26;;;;;;;1999.90;999.90;;;23.10;99.90;;;;;;5078539;28;20489;-73
2023/08/16 09:10:52;;;;;;;1999.90;999.90;;;23.10;99.90;;;;;;5081554;28;20028;-73
2023/08/16 09:13:20;;;;;;;1999.90;999.90;;;23.10;99.90;;;;;;5074397;28;20025;-73
2023/08/16 09:15:46;;;;;;;1999.90;999.90;;;23.10;99.90;;;;;;5072073;28;20111;-73
2023/08/16 09:18:17;;;;;;;1999.90;999.90;;;23.30;99.90;;;;;;5073893;28;20103;-73
2023/08/16 09:20:44;;;;;;;1999.90;999.90;;;23.30;99.90;;;;;;5070602;28;20033;-72
2023/08/16 09:23:17;;;;;;;1999.90;999.90;;;23.30;99.90;;;;;;5073731;28;20027;-72
2023/08/16 09:25:44;;;;;;;1999.90;999.90;;;23.10;99.90;;;;;;5061217;28;20036;-72
2023/08/16 09:28:14;;;;;;;1999.90;999.90;;;23.20;99.90;;;;;;5072353;28;20024;-73
2023/08/16 09:30:41;;;;;;;1999.90;999.90;;;23.10;99.90;;;;;;5071605;28;20123;-73
2023/08/16 09:33:07;;;;;;;1999.90;999.90;;;23.00;99.90;;;;;;5070844;28;20017;-73
2023/08/16 09:35:38;;;;;;;1999.90;999.90;;;23.00;99.90;;;;;;5071234;28;20036;-73
2023/08/16 09:38:03;;;;;;;1999.90;999.90;;;22.90;99.90;;;;;;5070123;28;20032;-72
2023/08/16 09:40:29;;;;;;;1999.90;999.90;;;22.80;99.90;;;;;;5070267;28;20034;-72
2023/08/16 09:43:00;;;;;;;1999.90;999.90;;;22.80;99.90;;;;;;5072792;28;20494;-72
2023/08/16 09:45:35;;;;;;;1999.90;999.90;;;22.80;99.90;;;;;;5070472;28;20600;-72
2023/08/16 09:48:01;;;;;;;1999.90;999.90;;;23.30;99.90;;;;;;5067129;28;20458;-73
2023/08/16 09:50:34;;;;;;;1999.90;999.90;;;23.60;99.90;;;;;;5070165;28;20027;-73
2023/08/16 09:53:04;;;;;;;1999.90;999.90;;;23.70;99.90;;;;;;5066354;28;20107;-73
2023/08/16 09:55:35;;;;;;;1999.90;999.90;;;23.70;99.90;;;;;;5071443;28;20495;-73
2023/08/16 09:58:01;;;;;;;1999.90;999.90;;;23.40;99.90;;;;;;5070956;28;20029;-73
2023/08/16 10:00:28;;;;;;;1999.90;999.90;;;23.20;99.90;;;;;;5071569;28;20020;-72
2023/08/16 10:02:55;;;;;;;1999.90;999.90;;;23.10;99.90;;;;;;5070559;28;20053;-73
2023/08/16 10:05:21;;;;;;;1999.90;999.90;;;23.10;99.90;;;;;;5070860;28;20495;-72
2023/08/16 10:07:48;;;;;;;1999.90;999.90;;;23.10;99.90;;;;;;5073241;28;20399;-73
2023/08/16 10:10:14;;;;;;;1999.90;999.90;;;23.00;99.90;;;;;;5079228;28;20062;-72
2023/08/16 10:12:40;;;;;;;1999.90;999.90;;;23.30;99.90;;;;;;5071692;28;20031;-73
2023/08/16 10:15:07;;;;;;;1999.90;999.90;;;23.60;99.90;;;;;;5070825;28;20441;-73
2023/08/16 10:17:39;;;;;;;1999.90;999.90;;;24.00;99.90;;;;;;5070620;28;20036;-73
2023/08/16 10:20:07;;;;;;;1999.90;999.90;;;24.50;99.90;;;;;;5071321;28;20025;-73
2023/08/16 10:22:42;;;;;;;1999.90;999.90;;;24.40;99.90;;;;;;5069779;28;20048;-73
2023/08/16 10:25:12;;;;;;;1999.90;999.90;;;24.40;99.90;;;;;;5070938;28;20052;-73
2023/08/16 10:27:40;;;;;;;1999.90;999.90;;;24.40;99.90;;;;;;5069899;28;20024;-73
2023/08/16 10:30:12;;;;;;;1999.90;999.90;;;24.70;99.90;;;;;;5070361;28;20336;-73
2023/08/16 10:32:41;;;;;;;1999.90;999.90;;;24.80;99.90;;;;;;5072508;28;20028;-73
2023/08/16 10:35:09;;;;;;;1999.90;999.90;;;24.90;99.90;;;;;;5073343;28;20016;-73
2023/08/16 10:37:35;;;;;;;1999.90;999.90;;;25.50;99.90;;;;;;5073652;28;20416;-73
2023/08/16 10:40:00;;;;;;;1999.90;999.90;;;26.10;99.90;;;;;;5075452;28;20077;-73
2023/08/16 10:42:26;;;;;;;1999.90;999.90;;;26.10;99.90;;;;;;5074963;28;20040;-73
2023/08/16 10:44:52;;;;;;;1999.90;999.90;;;26.70;99.90;;;;;;5074555;28;20028;-73
2023/08/16 10:47:28;;;;;;;1999.90;999.90;;;26.80;99.90;;;;;;5074973;28;20028;-73
2023/08/16 10:49:54;;;;;;;1999.90;999.90;;;27.30;99.90;;;;;;5075403;28;20550;-73
2023/08/16 10:52:27;;;;;;;1999.90;999.90;;;27.40;99.90;;;;;;5074557;28;20031;-73
2023/08/16 10:54:54;;;;;;;1999.90;999.90;;;27.30;99.90;;;;;;5073398;28;20139;-73
2023/08/16 10:57:26;;;;;;;1999.90;999.90;;;27.30;99.90;;;;;;5074686;28;20143;-73
2023/08/16 11:00:09;;;;;;;1999.90;999.90;;;27.20;99.90;;;;;;5072938;28;20025;-73
2023/08/16 11:02:41;;;;;;;1999.90;999.90;;;26.80;99.90;;;;;;5074620;28;20411;-73
2023/08/16 11:05:17;;;;;;;1999.90;999.90;;;26.80;99.90;;;;;;5072184;28;20081;-73
2023/08/16 11:07:43;;;;;;;1999.90;999.90;;;26.60;99.90;;;;;;5073579;28;20044;-73
2023/08/16 11:10:09;;;;;;;1999.90;999.90;;;26.50;99.90;;;;;;5081616;28;20059;-72
2023/08/16 11:12:35;;;;;;;1999.90;999.90;;;26.30;99.90;;;;;;5073157;28;20463;-73
2023/08/16 11:15:01;;;;;;;1999.90;999.90;;;26.50;99.90;;;;;;5077794;28;20027;-73
2023/08/16 11:17:28;;;;;;;1999.90;999.90;;;26.80;99.90;;;;;;5075417;28;20820;-73
2023/08/16 11:19:54;;;;;;;1999.90;999.90;;;27.10;99.90;;;;;;5074043;28;20499;-73
2023/08/16 11:22:24;;;;;;;1999.90;999.90;;;27.50;99.90;;;;;;5074253;28;20021;-73
2023/08/16 11:24:50;;;;;;;1999.90;999.90;;;27.90;99.90;;;;;;5078388;28;20024;-73
2023/08/16 11:27:22;;;;;;;1999.90;999.90;;;28.30;99.90;;;;;;5078567;28;20036;-73
2023/08/16 11:29:52;;;;;;;;;;;29.30;99.90;;;;;;5079602;28;20029;-73
2023/08/16 11:32:38;;;;;;;1999.90;999.90;;;29.50;99.90;;;;;;5074257;28;19909;-73
2023/08/16 11:35:08;;;;;;;1999.90;999.90;;;29.00;99.90;;;;;;5074251;28;20090;-73
2023/08/16 11:37:35;;;;;;;1999.90;999.90;;;27.90;99.90;;;;;;5073428;28;20031;-73
2023/08/16 11:40:01;;;;;;;1999.90;999.90;;;27.30;99.90;;;;;;5074514;28;20117;-73
2023/08/16 11:42:30;;;;;;;1999.90;999.90;;;27.00;99.90;;;;;;5073775;28;20021;-73
2023/08/16 11:44:55;;;;;;;1999.90;999.90;;;26.90;99.90;;;;;;5076777;28;20086;-73
2023/08/16 11:47:21;;;;;;;1999.90;999.90;;;26.70;99.90;;;;;;5072324;28;20032;-73
2023/08/16 11:49:50;;;;;;;1999.90;999.90;;;26.60;99.90;;;;;;5072826;28;20032;-73
2023/08/16 11:52:23;;;;;;;1999.90;999.90;;;26.10;99.90;;;;;;5073623;28;20024;-73
2023/08/16 11:55:01;;;;;;;1999.90;999.90;;;25.80;99.90;;;;;;5073758;28;20079;-73
2023/08/16 11:57:27;;;;;;;1999.90;999.90;;;25.60;99.90;;;;;;5073010;28;20392;-72